sensor_id;sensor_type;location;lat;lon;timestamp;pressure;altitude;pressure_sealevel;temperature;humidity
38558;BME280;24333;42.626;23.308;2023-04-06T04:51:45;71230.34;;;-148.95;84.48
38558;BME280;24333;42.626;23.308;2023-04-06T04:54:11;71234.50;;;-148.95;85.96
38558;BME280;24333;42.626;23.308;2023-04-06T04:56:37;71240.72;;;-148.95;85.12
38558;BME280;24333;42.626;23.308;2023-04-06T04:59:02;71251.09;;;-148.95;84.46
38558;BME280;24333;42.626;23.308;2023-04-06T05:01:28;71253.19;;;-148.95;83.10
38558;BME280;24333;42.626;23.308;2023-04-06T05:03:57;71238.66;;;-148.95;83.08
38558;BME280;24333;42.626;23.308;2023-04-06T05:06:29;71240.72;;;-148.95;82.94
38558;BME280;24333;42.626;23.308;2023-04-06T05:08:56;71238.66;;;-148.95;81.85
38558;BME280;24333;42.626;23.308;2023-04-06T05:11:25;71230.34;;;-148.95;80.94
38558;BME280;24333;42.626;23.308;2023-04-06T05:13:54;71217.91;;;-148.95;80.64
38558;BME280;24333;42.626;23.308;2023-04-06T05:18:55;71186.78;;;-148.95;78.25
38558;BME280;24333;42.626;23.308;2023-04-06T10:00:17;70724.03;;;-148.95;53.03
38558;BME280;24333;42.626;23.308;2023-04-06T10:08:13;70734.41;;;-148.95;49.81
38558;BME280;24333;42.626;23.308;2023-04-06T11:41:32;70641.03;;;-148.95;51.31
38558;BME280;24333;42.626;23.308;2023-04-06T11:44:01;70634.81;;;-148.95;49.88
38558;BME280;24333;42.626;23.308;2023-04-06T11:46:28;70659.69;;;-148.95;50.46
38558;BME280;24333;42.626;23.308;2023-04-06T11:49:02;70655.53;;;-148.95;51.12
38558;BME280;24333;42.626;23.308;2023-04-06T11:51:28;70649.31;;;-148.95;50.47
38558;BME280;24333;42.626;23.308;2023-04-06T11:53:54;70614.06;;;-148.95;50.64
38558;BME280;24333;42.626;23.308;2023-04-06T11:56:29;70632.72;;;-148.95;48.76
38558;BME280;24333;42.626;23.308;2023-04-06T11:59:32;70618.19;;;-148.95;49.09
38558;BME280;24333;42.626;23.308;2023-04-06T12:02:02;70636.88;;;-148.95;49.26
38558;BME280;24333;42.626;23.308;2023-04-06T12:04:28;70630.66;;;-148.95;48.49
38558;BME280;24333;42.626;23.308;2023-04-06T12:06:55;70632.72;;;-148.95;48.34
38558;BME280;24333;42.626;23.308;2023-04-06T12:09:28;70599.53;;;-148.95;48.66
38558;BME280;24333;42.626;23.308;2023-04-06T12:11:55;70630.66;;;-148.95;48.08
38558;BME280;24333;42.626;23.308;2023-04-06T13:33:34;70726.09;;;-148.95;50.87
38558;BME280;24333;42.626;23.308;2023-04-06T13:36:01;70748.91;;;-148.95;50.81
38558;BME280;24333;42.626;23.308;2023-04-06T13:38:27;70726.09;;;-148.95;51.55
38558;BME280;24333;42.626;23.308;2023-04-06T13:40:52;70732.31;;;-148.95;51.46
38558;BME280;24333;42.626;23.308;2023-04-06T13:43:18;70738.53;;;-148.95;50.95
38558;BME280;24333;42.626;23.308;2023-04-06T13:45:53;70724.03;;;-148.95;50.85
38558;BME280;24333;42.626;23.308;2023-04-06T15:37:37;70792.50;;;-148.95;52.97
38558;BME280;24333;42.626;23.308;2023-04-06T15:40:03;70796.66;;;-148.95;53.24
38558;BME280;24333;42.626;23.308;2023-04-06T15:42:29;70792.50;;;-148.95;54.01
38558;BME280;24333;42.626;23.308;2023-04-06T15:44:54;70804.94;;;-148.95;54.68
38558;BME280;24333;42.626;23.308;2023-04-06T15:47:20;70802.88;;;-148.95;55.51
38558;BME280;24333;42.626;23.308;2023-04-06T15:49:46;70815.31;;;-148.95;57.18
38558;BME280;24333;42.626;23.308;2023-04-06T16:34:42;70914.91;;;-148.95;64.13
38558;BME280;24333;42.626;23.308;2023-04-06T16:37:08;70919.06;;;-148.95;61.77
38558;BME280;24333;42.626;23.308;2023-04-06T16:39:36;70923.22;;;-148.95;60.09
38558;BME280;24333;42.626;23.308;2023-04-06T16:42:01;70914.91;;;-148.95;59.47
38558;BME280;24333;42.626;23.308;2023-04-06T16:44:31;70914.91;;;-148.95;58.29
38558;BME280;24333;42.626;23.308;2023-04-06T16:46:57;70904.53;;;-148.95;57.85
38558;BME280;24333;42.626;23.308;2023-04-06T21:28:31;71109.97;;;-148.95;44.29
38558;BME280;24333;42.626;23.308;2023-04-06T21:31:06;71099.59;;;-148.95;44.37
38558;BME280;24333;42.626;23.308;2023-04-06T21:33:33;71099.59;;;-148.95;44.33
38558;BME280;24333;42.626;23.308;2023-04-06T21:36:05;71101.69;;;-148.95;44.91
38558;BME280;24333;42.626;23.308;2023-04-06T21:38:31;71101.69;;;-148.95;44.77
38558;BME280;24333;42.626;23.308;2023-04-06T21:40:59;71093.38;;;-148.95;45.09
38558;BME280;24333;42.626;23.308;2023-04-06T21:43:25;71087.16;;;-148.95;45.53
38558;BME280;24333;42.626;23.308;2023-04-06T21:45:52;71085.09;;;-148.95;44.24
38558;BME280;24333;42.626;23.308;2023-04-06T21:48:17;71080.94;;;-148.95;44.32
38558;BME280;24333;42.626;23.308;2023-04-06T21:50:43;71078.84;;;-148.95;44.25
38558;BME280;24333;42.626;23.308;2023-04-06T21:53:10;71083.00;;;-148.95;44.94
38558;BME280;24333;42.626;23.308;2023-04-06T21:55:44;71093.38;;;-148.95;45.83
38558;BME280;24333;42.626;23.308;2023-04-06T21:58:29;71093.38;;;-148.95;45.92
38558;BME280;24333;42.626;23.308;2023-04-06T22:00:55;71093.38;;;-148.95;45.53
38558;BME280;24333;42.626;23.308;2023-04-06T22:03:26;71105.84;;;-148.95;46.25
38558;BME280;24333;42.626;23.308;2023-04-06T22:05:53;71118.28;;;-148.95;45.25
38558;BME280;24333;42.626;23.308;2023-04-06T22:08:21;71109.97;;;-148.95;45.38
38558;BME280;24333;42.626;23.308;2023-04-06T22:10:47;71116.22;;;-148.95;45.25
38558;BME280;24333;42.626;23.308;2023-04-06T22:13:16;71122.44;;;-148.95;45.83
38558;BME280;24333;42.626;23.308;2023-04-06T22:15:42;71134.88;;;-148.95;46.85
